Time;durP1;ratioP1;P1;durP2;ratioP2;P2;SDS_P1;SDS_P2;PMS_P1;PMS_P2;Temp;Humidity;BMP_temperature;BMP_pressure;BME280_temperature;BME280_humidity;BME280_pressure;Samples;Min_cycle;Max_cycle;Signal;HPM_P1;HPM_P2
2023/05/31 00:00:03;;;;;;;;;;;24.90;44.20;;;;;;5106255;27;42924;-80
2023/05/31 00:02:29;;;;;;;;;;;24.90;43.10;;;;;;5105504;27;42869;-77
2023/05/31 00:04:55;;;;;;;;;;;24.90;43.60;;;;;;5099491;27;43304;-75
2023/05/31 00:07:20;;;;;;;;;;;24.90;43.10;;;;;;5087987;27;43013;-81
2023/05/31 00:09:46;;;;;;;;;;;24.90;43.70;;;;;;5099162;27;42996;-77
2023/05/31 00:12:11;;;;;;;;;;;24.90;43.80;;;;;;5088191;27;42980;-84
2023/05/31 00:14:37;;;;;;;;;;;24.80;43.20;;;;;;5099560;27;43122;-79
2023/05/31 00:17:03;;;;;;;;;;;24.90;43.10;;;;;;5100773;27;43060;-76
2023/05/31 00:19:28;;;;;;;;;;;24.90;43.10;;;;;;5086551;27;44760;-74
2023/05/31 00:21:54;;;;;;;;;;;24.90;43.50;;;;;;5092522;27;42976;-76
2023/05/31 00:24:19;;;;;;;;;;;24.90;43.10;;;;;;5086823;27;43821;-74
2023/05/31 00:26:45;;;;;;;;;;;24.90;43.20;;;;;;5074932;27;42971;-76
2023/05/31 00:29:11;;;;;;;;;;;24.90;43.40;;;;;;5091713;27;43497;-75
2023/05/31 00:31:36;;;;;;;;;;;24.90;43.30;;;;;;5091987;27;42940;-83
2023/05/31 00:34:02;;;;;;;;;;;24.90;43.10;;;;;;5093933;27;42970;-74
2023/05/31 00:36:27;;;;;;;;;;;24.90;43.60;;;;;;5100590;27;42906;-82
2023/05/31 00:38:52;;;;;;;;;;;24.90;43.70;;;;;;5094559;27;43009;-82
2023/05/31 00:41:18;;;;;;;;;;;24.90;43.80;;;;;;5093385;27;43417;-87
2023/05/31 00:43:44;;;;;;;;;;;24.90;43.70;;;;;;5097597;27;43847;-83
2023/05/31 00:46:11;;;;;;;;;;;24.90;43.70;;;;;;5093261;27;43070;-78
2023/05/31 00:48:38;;;;;;;;;;;24.90;43.10;;;;;;5093748;27;43746;-76
2023/05/31 00:51:05;;;;;;;;;;;24.90;42.90;;;;;;5072842;27;43034;-81
2023/05/31 00:53:30;;;;;;;;;;;24.90;42.70;;;;;;5096877;27;43094;-81
2023/05/31 00:55:57;;;;;;;;;;;24.90;43.10;;;;;;5091114;27;42911;-82
2023/05/31 00:58:24;;;;;;;;;;;24.90;43.00;;;;;;5093461;27;43609;-83
2023/05/31 01:00:49;;;;;;;;;;;24.90;42.80;;;;;;5092528;27;43405;-76
2023/05/31 01:03:16;;;;;;;;;;;24.90;42.20;;;;;;5099461;27;43521;-75
2023/05/31 01:05:41;;;;;;;;;;;24.90;42.10;;;;;;5095780;27;43120;-84
2023/05/31 01:08:07;;;;;;;;;;;24.80;42.40;;;;;;5097933;27;43537;-82
2023/05/31 01:10:32;;;;;;;;;;;24.90;43.10;;;;;;5085273;27;43045;-74
2023/05/31 01:13:07;;;;;;;;;;;24.90;42.60;;;;;;5088103;27;43806;-86
2023/05/31 01:15:34;;;;;;;;;;;24.80;42.40;;;;;;5104692;27;42949;-81
2023/05/31 01:18:09;;;;;;;;;;;24.80;42.00;;;;;;5105187;27;42866;-85
2023/05/31 01:20:35;;;;;;;;;;;24.80;42.10;;;;;;5101588;27;43674;-74
2023/05/31 01:23:01;;;;;;;;;;;24.80;42.50;;;;;;5098274;27;43612;-81
2023/05/31 01:25:39;;;;;;;;;;;24.90;42.00;;;;;;5085916;27;42940;-75
2023/05/31 01:28:06;;;;;;;;;;;24.80;42.30;;;;;;5101241;27;43939;-78
2023/05/31 01:30:32;;;;;;;;;;;24.80;42.80;;;;;;5105181;27;43070;-82
2023/05/31 01:32:59;;;;;;;;;;;24.90;42.50;;;;;;5091552;27;43003;-74
2023/05/31 01:35:25;;;;;;;;;;;24.90;42.50;;;;;;5084951;27;42997;-79
2023/05/31 01:37:51;;;;;;;;;;;24.90;43.10;;;;;;5098570;27;43917;-83
2023/05/31 01:40:17;;;;;;;;;;;24.90;42.70;;;;;;5085411;27;42914;-77
2023/05/31 01:42:43;;;;;;;;;;;24.90;42.50;;;;;;5098274;27;43056;-77
2023/05/31 01:45:10;;;;;;;;;;;24.90;42.50;;;;;;5085412;27;42929;-80
2023/05/31 01:47:37;;;;;;;;;;;24.90;42.70;;;;;;5093539;27;43623;-75
2023/05/31 01:50:02;;;;;;;;;;;24.90;42.70;;;;;;5105834;27;42921;-76
2023/05/31 01:52:28;;;;;;;;;;;24.90;43.30;;;;;;5091448;27;42871;-76
2023/05/31 01:54:54;;;;;;;;;;;24.90;42.60;;;;;;5104996;27;43031;-84
2023/05/31 01:57:19;;;;;;;;;;;24.90;43.20;;;;;;5091905;27;43403;-74
2023/05/31 01:59:45;;;;;;;;;;;24.90;42.70;;;;;;5104858;27;42965;-81
2023/05/31 02:02:11;;;;;;;;;;;25.00;42.90;;;;;;5084877;27;43365;-87
2023/05/31 02:04:36;;;;;;;;;;;24.90;43.00;;;;;;5084867;27;42903;-85
2023/05/31 02:07:02;;;;;;;;;;;24.80;43.00;;;;;;5084630;27;42882;-75
2023/05/31 02:09:28;;;;;;;;;;;24.80;43.40;;;;;;5084460;27;42935;-87
2023/05/31 02:11:53;;;;;;;;;;;24.90;43.40;;;;;;5093801;27;43703;-82
2023/05/31 02:14:19;;;;;;;;;;;24.90;43.30;;;;;;5084295;27;42992;-88
2023/05/31 02:16:44;;;;;;;;;;;24.90;43.00;;;;;;5086824;27;43307;-84
2023/05/31 02:19:13;;;;;;;;;;;24.90;43.00;;;;;;5095682;27;42825;-75
2023/05/31 02:21:39;;;;;;;;;;;24.90;43.00;;;;;;5091903;27;43310;-83
2023/05/31 02:24:05;;;;;;;;;;;24.90;42.50;;;;;;5092760;27;43228;-76
2023/05/31 02:26:30;;;;;;;;;;;24.90;43.00;;;;;;5084789;27;45141;-76
2023/05/31 02:28:56;;;;;;;;;;;24.90;42.90;;;;;;5085248;27;42965;-75
2023/05/31 02:31:21;;;;;;;;;;;24.80;42.60;;;;;;5084347;27;43002;-86
2023/05/31 02:33:47;;;;;;;;;;;24.90;42.80;;;;;;5078361;27;42765;-89
2023/05/31 02:36:13;;;;;;;;;;;24.80;43.30;;;;;;5085794;27;43655;-84
2023/05/31 02:38:38;;;;;;;;;;;24.80;42.70;;;;;;5087522;27;43005;-74
2023/05/31 02:41:04;;;;;;;;;;;24.90;42.70;;;;;;5082899;27;42987;-74
2023/05/31 02:43:32;;;;;;;;;;;24.80;42.70;;;;;;5093283;27;42969;-82
2023/05/31 02:46:01;;;;;;;;;;;24.80;42.70;;;;;;5090376;27;43315;-78
2023/05/31 02:48:27;;;;;;;;;;;24.80;43.00;;;;;;5089240;27;42974;-77
2023/05/31 02:50:53;;;;;;;;;;;24.80;43.50;;;;;;5092091;27;42993;-87
2023/05/31 02:53:18;;;;;;;;;;;24.80;43.60;;;;;;5091935;27;42986;-74
2023/05/31 02:55:44;;;;;;;;;;;24.80;43.60;;;;;;5098450;27;43350;-87
2023/05/31 02:58:10;;;;;;;;;;;24.80;43.80;;;;;;5091778;27;43005;-74
2023/05/31 03:00:36;;;;;;;;;;;24.80;43.40;;;;;;5102546;27;44715;-75
2023/05/31 03:03:01;;;;;;;;;;;24.70;43.40;;;;;;5080395;27;42929;-74
2023/05/31 03:05:29;;;;;;;;;;;24.80;43.90;;;;;;5088312;27;42995;-75
2023/05/31 03:07:55;;;;;;;;;;;24.70;43.80;;;;;;5070538;27;43011;-75
2023/05/31 03:10:20;;;;;;;;;;;24.70;43.70;;;;;;5090257;27;43363;-83
2023/05/31 03:12:46;;;;;;;;;;;24.70;43.30;;;;;;5088900;27;42866;-84
2023/05/31 03:15:11;;;;;;;;;;;24.70;43.90;;;;;;5092674;27;43432;-74
2023/05/31 03:17:37;;;;;;;;;;;24.70;43.50;;;;;;5098695;27;43021;-74
2023/05/31 03:20:03;;;;;;;;;;;24.70;44.00;;;;;;5096075;27;43506;-76
2023/05/31 03:22:29;;;;;;;;;;;24.70;43.60;;;;;;5097441;27;43371;-76
2023/05/31 03:24:54;;;;;;;;;;;20.00;41.20;;;;;;5100747;27;42922;-86
2023/05/31 03:27:20;;;;;;;;;;;24.70;44.10;;;;;;5085831;27;43120;-87
2023/05/31 03:29:45;;;;;;;;;;;24.60;43.50;;;;;;5100206;27;43738;-79
2023/05/31 03:32:13;;;;;;;;;;;24.70;43.40;;;;;;5086114;27;59719;-88
2023/05/31 03:34:38;;;;;;;;;;;24.70;43.90;;;;;;5067972;28;44623;-86
2023/05/31 03:37:04;;;;;;;;;;;24.70;43.50;;;;;;5092164;27;43101;-77
2023/05/31 03:39:29;;;;;;;;;;;24.70;43.60;;;;;;5088061;27;42973;-85
2023/05/31 03:41:55;;;;;;;;;;;24.70;43.80;;;;;;5103739;27;42960;-88
2023/05/31 03:44:20;;;;;;;;;;;24.60;43.80;;;;;;5092772;27;43362;-74
2023/05/31 03:46:47;;;;;;;;;;;24.70;43.90;;;;;;5106129;27;43081;-87
2023/05/31 03:49:12;;;;;;;;;;;24.70;43.90;;;;;;5091395;27;42977;-86
2023/05/31 03:51:38;;;;;;;;;;;24.70;43.80;;;;;;5093870;27;42933;-74
2023/05/31 03:54:03;;;;;;;;;;;24.60;43.70;;;;;;5085426;27;43628;-83
2023/05/31 03:56:29;;;;;;;;;;;29.40;47.20;;;;;;5101911;27;42938;-79
2023/05/31 03:58:54;;;;;;;;;;;24.70;44.40;;;;;;5090995;27;43192;-79
2023/05/31 04:01:20;;;;;;;;;;;24.70;44.50;;;;;;5097485;27;43028;-75
2023/05/31 04:03:46;;;;;;;;;;;24.70;44.60;;;;;;5100047;27;43612;-78
2023/05/31 04:06:11;;;;;;;;;;;24.70;44.30;;;;;;5095380;27;42958;-80
2023/05/31 04:08:37;;;;;;;;;;;24.70;44.10;;;;;;5093310;27;43344;-76
2023/05/31 04:11:02;;;;;;;;;;;24.70;44.00;;;;;;5105045;27;42906;-75
2023/05/31 04:13:28;;;;;;;;;;;24.60;44.20;;;;;;5099776;27;42985;-78
2023/05/31 04:15:54;;;;;;;;;;;24.60;44.50;;;;;;5105080;27;42905;-81
2023/05/31 04:18:19;;;;;;;;;;;24.60;45.10;;;;;;5102327;27;43541;-78
2023/05/31 04:20:45;;;;;;;;;;;24.60;44.40;;;;;;5096787;27;43345;-74
2023/05/31 04:23:10;;;;;;;;;;;24.60;44.40;;;;;;5105195;27;43821;-80
2023/05/31 04:25:36;;;;;;;;;;;24.60;44.90;;;;;;5101253;27;43048;-75
2023/05/31 04:28:01;;;;;;;;;;;24.50;44.60;;;;;;5087098;27;43540;-78
2023/05/31 04:30:27;;;;;;;;;;;24.60;45.40;;;;;;5094888;27;43078;-77
2023/05/31 04:32:56;;;;;;;;;;;24.50;45.10;;;;;;5099263;27;43283;-75
2023/05/31 04:35:22;;;;;;;;;;;24.50;45.20;;;;;;5094246;27;43232;-77
2023/05/31 04:37:52;;;;;;;;;;;24.50;45.60;;;;;;5091228;27;43307;-77
2023/05/31 04:40:20;;;;;;;;;;;24.50;46.20;;;;;;5101178;27;43065;-75
2023/05/31 04:42:45;;;;;;;;;;;27.80;47.50;;;;;;5090457;27;43467;-79
2023/05/31 04:45:11;;;;;;;;;;;24.60;45.90;;;;;;5091775;27;42997;-75
2023/05/31 04:47:37;;;;;;;;;;;24.50;45.40;;;;;;5084868;27;43013;-75
2023/05/31 04:50:02;;;;;;;;;;;24.40;45.20;;;;;;5098043;27;43276;-77
2023/05/31 04:52:32;;;;;;;;;;;24.50;45.20;;;;;;5088599;27;43576;-74
2023/05/31 04:54:58;;;;;;;;;;;24.50;45.30;;;;;;5089773;27;44022;-77
2023/05/31 04:57:26;;;;;;;;;;;24.50;45.40;;;;;;5091888;27;43008;-78
2023/05/31 04:59:51;;;;;;;;;;;24.50;44.90;;;;;;5091735;27;42880;-75
2023/05/31 05:02:17;;;;;;;;;;;24.50;44.20;;;;;;5090419;27;42934;-75
2023/05/31 05:04:43;;;;;;;;;;;24.60;44.10;;;;;;5072323;27;43995;-80
2023/05/31 05:07:08;;;;;;;;;;;24.50;44.40;;;;;;5098477;27;42964;-79
2023/05/31 05:09:34;;;;;;;;;;;24.60;45.10;;;;;;5086510;27;42985;-76
2023/05/31 05:12:00;;;;;;;;;;;24.60;45.50;;;;;;5086710;27;42873;-78
2023/05/31 05:14:25;;;;;;;;;;;24.60;45.80;;;;;;5092833;27;43228;-75
2023/05/31 05:16:51;;;;;;;;;;;24.60;45.60;;;;;;5091420;27;43770;-75
2023/05/31 05:19:16;;;;;;;;;;;24.70;46.10;;;;;;5100665;27;42973;-79
2023/05/31 05:21:42;;;;;;;;;;;24.60;46.10;;;;;;5102699;27;42953;-78
2023/05/31 05:24:07;;;;;;;;;;;24.70;46.10;;;;;;5104869;27;42816;-79
2023/05/31 05:26:33;;;;;;;;;;;24.70;46.00;;;;;;5098928;27;43104;-79
2023/05/31 05:28:58;;;;;;;;;;;24.70;45.40;;;;;;5086255;27;42925;-78
2023/05/31 05:31:24;;;;;;;;;;;24.70;45.50;;;;;;5087043;27;43127;-78
2023/05/31 05:33:50;;;;;;;;;;;24.70;46.00;;;;;;5096877;27;42862;-78
2023/05/31 05:36:16;;;;;;;;;;;24.70;46.00;;;;;;5104007;27;44699;-78
2023/05/31 05:38:41;;;;;;;;;;;24.70;45.60;;;;;;5091566;27;43319;-78
2023/05/31 05:41:10;;;;;;;;;;;24.70;46.00;;;;;;5091341;27;43750;-77
2023/05/31 05:43:36;;;;;;;;;;;24.70;45.90;;;;;;5098316;27;43129;-76
2023/05/31 05:46:02;;;;;;;;;;;24.70;45.30;;;;;;5091603;27;43249;-78
2023/05/31 05:48:27;;;;;;;;;;;24.70;45.80;;;;;;5098447;27;43003;-77
2023/05/31 05:50:52;;;;;;;;;;;24.70;45.30;;;;;;5085341;27;42986;-79
2023/05/31 05:53:18;;;;;;;;;;;24.70;45.80;;;;;;5091696;27;42971;-79
2023/05/31 05:55:53;;;;;;;;;;;24.70;45.30;;;;;;5095796;27;43488;-77
2023/05/31 05:58:19;;;;;;;;;;;24.70;45.70;;;;;;5091420;27;42890;-78
2023/05/31 06:00:45;;;;;;;;;;;24.70;45.80;;;;;;5090069;27;42969;-78
2023/05/31 06:03:11;;;;;;;;;;;24.70;45.80;;;;;;5085167;27;43104;-78
2023/05/31 06:05:37;;;;;;;;;;;24.70;45.30;;;;;;5084145;27;43035;-77
2023/05/31 06:08:02;;;;;;;;;;;24.70;45.30;;;;;;5098474;27;43133;-77
2023/05/31 06:10:28;;;;;;;;;;;24.70;45.20;;;;;;5071931;27;45645;-77
2023/05/31 06:12:54;;;;;;;;;;;24.80;45.80;;;;;;5085368;27;43005;-77
2023/05/31 06:15:19;;;;;;;;;;;24.70;45.30;;;;;;5095109;27;43646;-78
2023/05/31 06:17:47;;;;;;;;;;;24.80;45.30;;;;;;5092498;27;42974;-77
2023/05/31 06:20:13;;;;;;;;;;;24.70;45.30;;;;;;5092080;27;43028;-78
2023/05/31 06:22:39;;;;;;;;;;;24.70;45.20;;;;;;5098310;27;43027;-78
2023/05/31 06:25:05;;;;;;;;;;;24.70;45.30;;;;;;5096927;27;43057;-78
2023/05/31 06:27:30;;;;;;;;;;;24.80;45.90;;;;;;5084473;27;43486;-77
2023/05/31 06:29:58;;;;;;;;;;;24.70;45.40;;;;;;5084733;27;42809;-79
2023/05/31 06:32:25;;;;;;;;;;;24.70;46.00;;;;;;5085154;27;42993;-79
2023/05/31 06:34:51;;;;;;;;;;;24.80;45.50;;;;;;5095621;27;43623;-79
2023/05/31 06:37:17;;;;;;;;;;;24.80;45.50;;;;;;5107576;27;42855;-77
2023/05/31 06:39:43;;;;;;;;;;;24.70;45.50;;;;;;5087891;27;43418;-76
2023/05/31 06:42:09;;;;;;;;;;;24.70;45.50;;;;;;5087844;27;43007;-77
2023/05/31 06:44:34;;;;;;;;;;;24.70;46.00;;;;;;5087608;27;43378;-77
2023/05/31 06:47:00;;;;;;;;;;;24.70;45.50;;;;;;5101650;27;43015;-77
2023/05/31 06:49:27;;;;;;;;;;;24.70;45.40;;;;;;5088350;27;42770;-77
2023/05/31 06:51:53;;;;;;;;;;;24.70;45.30;;;;;;5087557;27;43088;-78
2023/05/31 06:54:18;;;;;;;;;;;24.70;45.10;;;;;;5087806;27;43025;-79
2023/05/31 06:56:44;;;;;;;;;;;24.70;45.60;;;;;;5087883;27;43157;-78
2023/05/31 06:59:09;;;;;;;;;;;24.70;45.40;;;;;;5077221;27;43733;-77
2023/05/31 07:01:35;;;;;;;;;;;24.70;44.80;;;;;;5106861;27;42921;-77
2023/05/31 07:04:00;;;;;;;;;;;24.80;44.80;;;;;;5087767;27;42954;-79
2023/05/31 07:06:26;;;;;;;;;;;24.80;44.80;;;;;;5100417;27;42910;-77
2023/05/31 07:08:51;;;;;;;;;;;24.70;44.80;;;;;;5087457;27;43421;-76
2023/05/31 07:11:17;;;;;;;;;;;24.80;45.30;;;;;;5087155;27;42902;-77
2023/05/31 07:13:43;;;;;;;;;;;24.70;44.70;;;;;;5095175;27;43652;-77
2023/05/31 07:16:08;;;;;;;;;;;24.80;45.30;;;;;;5093762;27;42980;-77
2023/05/31 07:18:34;;;;;;;;;;;24.80;45.20;;;;;;5107041;27;42910;-79
2023/05/31 07:20:59;;;;;;;;;;;24.80;44.70;;;;;;5106772;27;42921;-78
2023/05/31 07:23:25;;;;;;;;;;;24.70;45.20;;;;;;5099982;27;42910;-77
2023/05/31 07:25:51;;;;;;;;;;;24.70;45.00;;;;;;5100631;27;43238;-77
2023/05/31 07:28:17;;;;;;;;;;;24.80;44.40;;;;;;5093910;27;43909;-77
2023/05/31 07:30:42;;;;;;;;;;;24.80;44.30;;;;;;5106207;27;42930;-78
2023/05/31 07:33:08;;;;;;;;;;;24.80;44.30;;;;;;5086937;27;43936;-79
2023/05/31 07:35:33;;;;;;;;;;;24.80;44.30;;;;;;5087798;27;43064;-77
2023/05/31 07:37:59;;;;;;;;;;;24.80;44.40;;;;;;5093135;27;43592;-77
2023/05/31 07:40:24;;;;;;;;;;;24.80;44.40;;;;;;5074708;27;43036;-77
2023/05/31 07:42:50;;;;;;;;;;;24.80;44.40;;;;;;5098409;27;42941;-77
2023/05/31 07:45:16;;;;;;;;;;;24.80;44.90;;;;;;5098422;27;42964;-77
2023/05/31 07:47:41;;;;;;;;;;;24.80;44.60;;;;;;5099016;27;42885;-77
2023/05/31 07:50:07;;;;;;;;;;;24.80;44.50;;;;;;5087691;27;42998;-76
2023/05/31 07:52:32;;;;;;;;;;;27.90;45.90;;;;;;5089623;27;42891;-75
2023/05/31 07:54:58;;;;;;;;;;;24.80;44.30;;;;;;5087658;27;42853;-78
2023/05/31 07:57:23;;;;;;;;;;;24.80;44.10;;;;;;5088889;27;43448;-77
2023/05/31 07:59:50;;;;;;;;;;;24.80;44.70;;;;;;5086205;27;42977;-79
2023/05/31 08:02:16;;;;;;;;;;;24.80;44.10;;;;;;5104477;27;43027;-77
2023/05/31 08:04:43;;;;;;;;;;;24.80;43.50;;;;;;5087192;27;43089;-78
2023/05/31 08:07:09;;;;;;;;;;;24.80;43.50;;;;;;5088537;27;42922;-78
2023/05/31 08:09:35;;;;;;;;;;;24.80;43.50;;;;;;5087594;27;42925;-76
2023/05/31 08:12:02;;;;;;;;;;;24.80;44.00;;;;;;5099368;27;43111;-77
2023/05/31 08:14:28;;;;;;;;;;;24.80;43.50;;;;;;5087873;27;42865;-76
2023/05/31 08:16:54;;;;;;;;;;;24.80;44.00;;;;;;5086158;27;43320;-76
2023/05/31 08:19:21;;;;;;;;;;;24.80;43.20;;;;;;5085912;27;42847;-79
2023/05/31 08:21:46;;;;;;;;;;;24.90;43.70;;;;;;5092374;27;42915;-79
2023/05/31 08:24:12;;;;;;;;;;;24.90;43.50;;;;;;5106476;27;43092;-78
2023/05/31 08:26:37;;;;;;;;;;;24.90;42.70;;;;;;5085719;27;42953;-77
2023/05/31 08:29:03;;;;;;;;;;;24.90;43.10;;;;;;5099141;27;43054;-79
2023/05/31 08:31:28;;;;;;;;;;;24.90;43.10;;;;;;5086419;27;42966;-79
2023/05/31 08:33:54;;;;;;;;;;;24.80;42.70;;;;;;5067826;28;42942;-80
2023/05/31 08:36:20;;;;;;;;;;;24.90;42.80;;;;;;5086078;27;43007;-79
2023/05/31 08:38:46;;;;;;;;;;;24.90;42.70;;;;;;5086828;27;42986;-77
2023/05/31 08:41:11;;;;;;;;;;;24.90;42.70;;;;;;5080824;28;44377;-77
2023/05/31 08:43:38;;;;;;;;;;;24.90;43.20;;;;;;5086136;27;42970;-77
2023/05/31 08:46:05;;;;;;;;;;;24.90;43.00;;;;;;5105663;27;42954;-78
2023/05/31 08:48:35;;;;;;;;;;;24.90;42.90;;;;;;5092831;27;42961;-77
2023/05/31 08:51:01;;;;;;;;;;;24.90;42.90;;;;;;5086079;27;42926;-77
2023/05/31 08:53:27;;;;;;;;;;;24.90;42.80;;;;;;5099429;27;42971;-79
2023/05/31 08:55:53;;;;;;;;;;;24.90;42.70;;;;;;5091552;27;43925;-77
2023/05/31 08:58:19;;;;;;;;;;;24.90;42.70;;;;;;5106268;27;42966;-77
2023/05/31 09:00:46;;;;;;;;;;;24.90;42.60;;;;;;5086056;27;43318;-77
2023/05/31 09:03:12;;;;;;;;;;;24.90;42.60;;;;;;5099014;27;42968;-77
2023/05/31 09:05:37;;;;;;;;;;;24.90;42.00;;;;;;5098506;27;43122;-77
2023/05/31 09:08:03;;;;;;;;;;;24.90;42.50;;;;;;5098759;27;42959;-78
2023/05/31 09:10:29;;;;;;;;;;;24.90;42.60;;;;;;5092482;27;43016;-80
2023/05/31 09:12:54;;;;;;;;;;;24.90;42.50;;;;;;5104975;27;43086;-78
2023/05/31 09:15:22;;;;;;;;;;;24.90;42.00;;;;;;5098854;27;44203;-79
2023/05/31 09:17:47;;;;;;;;;;;24.90;42.50;;;;;;5087715;27;42914;-80
2023/05/31 09:20:13;;;;;;;;;;;24.90;42.30;;;;;;5086782;27;43705;-80
2023/05/31 09:22:39;;;;;;;;;;;25.00;42.80;;;;;;5086936;27;42930;-79
2023/05/31 09:25:04;;;;;;;;;;;24.90;42.20;;;;;;5098777;27;42777;-80
2023/05/31 09:27:37;;;;;;;;;;;25.00;42.80;;;;;;5099209;27;43968;-79
2023/05/31 09:30:04;;;;;;;;;;;25.00;42.20;;;;;;5075078;27;44582;-79
2023/05/31 09:32:30;;;;;;;;;;;25.00;42.20;;;;;;5090354;27;43002;-77
2023/05/31 09:35:08;;;;;;;;;;;25.00;42.10;;;;;;5085495;27;43013;-82
2023/05/31 09:37:41;;;;;;;;;;;25.00;42.60;;;;;;5092687;27;43098;-78
2023/05/31 09:40:07;;;;;;;;;;;25.00;42.10;;;;;;5096281;27;43850;-79
2023/05/31 09:42:32;;;;;;;;;;;25.00;42.70;;;;;;5100190;27;43274;-80
2023/05/31 09:44:59;;;;;;;;;;;25.00;42.00;;;;;;5084310;27;43802;-78
2023/05/31 09:47:27;;;;;;;;;;;25.00;42.60;;;;;;5101845;27;42997;-79
2023/05/31 09:49:54;;;;;;;;;;;24.90;42.00;;;;;;5104403;27;42940;-78
2023/05/31 09:52:26;;;;;;;;;;;24.90;42.60;;;;;;5090819;27;42942;-78
2023/05/31 09:54:51;;;;;;;;;;;25.00;42.70;;;;;;5072823;28;44580;-79
2023/05/31 09:57:30;;;;;;;;;;;24.90;42.70;;;;;;5084518;27;43093;-78
2023/05/31 09:59:57;;;;;;;;;;;25.00;42.50;;;;;;5084040;27;42914;-77
2023/05/31 10:02:22;;;;;;;;;;;24.90;42.90;;;;;;5085075;27;42954;-76
2023/05/31 10:04:48;;;;;;;;;;;24.90;42.50;;;;;;5085115;27;43042;-76
2023/05/31 10:07:14;;;;;;;;;;;25.00;42.60;;;;;;5099450;27;42988;-77
2023/05/31 10:09:40;;;;;;;;;;;25.00;43.10;;;;;;5084341;27;42969;-77
2023/05/31 10:12:06;;;;;;;;;;;25.00;43.20;;;;;;5100037;27;42891;-78
2023/05/31 10:14:38;;;;;;;;;;;25.00;42.70;;;;;;5089324;27;43628;-78
2023/05/31 10:17:05;;;;;;;;;;;25.10;43.20;;;;;;5090430;27;43057;-78
2023/05/31 10:19:37;;;;;;;;;;;25.00;43.00;;;;;;5085570;27;43711;-77
2023/05/31 10:22:03;;;;;;;;;;;25.00;42.90;;;;;;5093923;27;43133;-77
2023/05/31 10:24:33;;;;;;;;;;;25.00;42.80;;;;;;5102329;27;43188;-77
2023/05/31 10:27:13;;;;;;;;;;;25.00;42.30;;;;;;5084102;27;43012;-77
2023/05/31 10:29:42;;;;;;;;;;;25.00;42.00;;;;;;5083332;27;43015;-78
2023/05/31 10:32:14;;;;;;;;;;;25.00;42.00;;;;;;5065268;28;43127;-78
2023/05/31 10:34:40;;;;;;;;;;;25.00;42.50;;;;;;5084116;27;43421;-77
2023/05/31 10:37:06;;;;;;;;;;;25.10;42.00;;;;;;5084436;27;42919;-78
2023/05/31 10:39:44;;;;;;;;;;;25.00;42.40;;;;;;5094460;27;43419;-78
2023/05/31 10:42:12;;;;;;;;;;;25.00;42.40;;;;;;5094081;27;43316;-78
2023/05/31 10:44:46;;;;;;;;;;;25.00;42.50;;;;;;5102378;27;42882;-78
2023/05/31 10:47:14;;;;;;;;;;;24.90;42.10;;;;;;5086660;27;42983;-78
2023/05/31 10:49:41;;;;;;;;;;;25.00;42.00;;;;;;5083826;27;43400;-77
2023/05/31 10:52:08;;;;;;;;;;;25.00;42.60;;;;;;5086962;27;42935;-78
2023/05/31 10:54:34;;;;;;;;;;;24.90;42.00;;;;;;5086012;27;42966;-77
2023/05/31 10:57:03;;;;;;;;;;;25.00;42.40;;;;;;5088018;27;43028;-78
2023/05/31 10:59:29;;;;;;;;;;;25.00;42.40;;;;;;5096259;27;42890;-78
2023/05/31 11:01:55;;;;;;;;;;;25.00;42.30;;;;;;5099019;27;43175;-80
2023/05/31 11:04:24;;;;;;;;;;;25.00;42.50;;;;;;5086339;27;43466;-80
2023/05/31 11:07:08;;;;;;;;;;;25.00;42.10;;;;;;5098524;27;42992;-80
2023/05/31 11:09:34;;;;;;;;;;;25.00;42.60;;;;;;5093624;27;42970;-80
2023/05/31 11:11:59;;;;;;;;;;;24.90;42.10;;;;;;5095978;27;42834;-79
2023/05/31 11:14:26;;;;;;;;;;;25.00;42.70;;;;;;5102507;27;43865;-77
2023/05/31 11:16:56;;;;;;;;;;;25.00;42.50;;;;;;5095696;27;42986;-80
2023/05/31 11:19:35;;;;;;;;;;;25.00;42.20;;;;;;5095140;27;44505;-80
2023/05/31 11:22:08;;;;;;;;;;;25.00;41.60;;;;;;5101763;27;43048;-82
2023/05/31 11:24:50;;;;;;;;;;;25.00;41.40;;;;;;5090349;27;43421;-79
2023/05/31 11:27:17;;;;;;;;;;;25.00;41.90;;;;;;5087833;27;43113;-82
2023/05/31 11:29:48;;;;;;;;;;;25.00;41.80;;;;;;5094041;27;43734;-77
2023/05/31 11:32:14;;;;;;;;;;;25.00;41.70;;;;;;5092800;27;43435;-79
2023/05/31 11:34:56;;;;;;;;;;;25.00;41.90;;;;;;5104966;27;43965;-80
2023/05/31 11:37:22;;;;;;;;;;;25.00;41.70;;;;;;5096038;27;43305;-78
2023/05/31 11:39:48;;;;;;;;;;;25.00;41.80;;;;;;5091839;27;42982;-77
2023/05/31 11:42:14;;;;;;;;;;;25.00;41.10;;;;;;5096747;27;43092;-79
2023/05/31 11:44:46;;;;;;;;;;;25.00;41.70;;;;;;5099294;27;43385;-81
2023/05/31 11:47:19;;;;;;;;;;;25.00;41.60;;;;;;5101999;27;43094;-78
2023/05/31 11:49:45;;;;;;;;;;;25.00;41.50;;;;;;5098884;27;43003;-78
2023/05/31 11:52:14;;;;;;;;;;;25.00;40.90;;;;;;5077054;27;43040;-78
2023/05/31 11:54:43;;;;;;;;;;;25.00;40.90;;;;;;5095633;27;43171;-77
2023/05/31 11:57:08;;;;;;;;;;;25.00;40.80;;;;;;5092999;27;42933;-79
2023/05/31 11:59:34;;;;;;;;;;;25.00;41.30;;;;;;5098828;27;42947;-80
2023/05/31 12:02:01;;;;;;;;;;;25.00;40.30;;;;;;5092671;27;42913;-79
2023/05/31 12:04:30;;;;;;;;;;;25.00;39.70;;;;;;5093190;27;43010;-81
2023/05/31 12:06:56;;;;;;;;;;;24.90;39.30;;;;;;5102948;27;43072;-80
2023/05/31 12:09:25;;;;;;;;;;;24.90;39.90;;;;;;5106552;27;43429;-80
2023/05/31 12:11:51;;;;;;;;;;;25.00;39.20;;;;;;5103511;27;42838;-81
2023/05/31 12:14:17;;;;;;;;;;;25.00;39.20;;;;;;5104132;27;43346;-78
2023/05/31 12:16:44;;;;;;;;;;;24.90;39.40;;;;;;5101173;27;42995;-81
2023/05/31 12:19:12;;;;;;;;;;;25.00;38.60;;;;;;5103929;27;43518;-80
2023/05/31 12:21:38;;;;;;;;;;;25.00;39.40;;;;;;5082056;28;43981;-81
2023/05/31 12:24:10;;;;;;;;;;;25.00;38.80;;;;;;5086644;27;43609;-78
2023/05/31 12:26:36;;;;;;;;;;;25.00;39.60;;;;;;5095383;27;42923;-79
2023/05/31 12:29:02;;;;;;;;;;;24.90;38.80;;;;;;5102540;27;43030;-80
2023/05/31 12:31:31;;;;;;;;;;;24.90;38.50;;;;;;5098331;27;43153;-80
2023/05/31 12:33:58;;;;;;;;;;;24.90;38.40;;;;;;5101064;27;43671;-79
2023/05/31 12:36:25;;;;;;;;;;;21.60;36.70;;;;;;5084214;27;42876;-82
2023/05/31 12:38:55;;;;;;;;;;;24.90;38.40;;;;;;5085996;27;45216;-79
2023/05/31 12:41:22;;;;;;;;;;;24.90;38.30;;;;;;5082594;27;43235;-81
2023/05/31 12:43:47;;;;;;;;;;;24.90;38.00;;;;;;5101355;27;43164;-80
2023/05/31 12:46:17;;;;;;;;;;;24.90;38.90;;;;;;5095356;27;43986;-76
2023/05/31 12:48:49;;;;;;;;;;;24.90;38.30;;;;;;5101426;27;43829;-80
2023/05/31 12:51:24;;;;;;;;;;;24.90;38.80;;;;;;5093036;27;43326;-80
2023/05/31 12:53:50;;;;;;;;;;;25.00;38.10;;;;;;5092116;27;43560;-81
2023/05/31 12:56:16;;;;;;;;;;;25.00;38.60;;;;;;5103181;27;42926;-81
2023/05/31 12:58:42;;;;;;;;;;;25.00;38.80;;;;;;5092989;27;43755;-81
2023/05/31 13:01:07;;;;;;;;;;;25.00;38.90;;;;;;5101845;27;43086;-81
2023/05/31 13:03:33;;;;;;;;;;;25.00;38.70;;;;;;5097906;27;43018;-80
2023/05/31 13:05:59;;;;;;;;;;;24.90;38.50;;;;;;5089677;27;42879;-80
2023/05/31 13:08:24;;;;;;;;;;;25.00;38.50;;;;;;5094902;27;42910;-81
2023/05/31 13:10:50;;;;;;;;;;;25.00;38.20;;;;;;5096724;27;42944;-81
2023/05/31 13:13:16;;;;;;;;;;;25.00;39.40;;;;;;5103129;27;43696;-80
2023/05/31 13:15:41;;;;;;;;;;;25.10;38.50;;;;;;5085111;27;43097;-78
2023/05/31 13:18:07;;;;;;;;;;;25.00;38.40;;;;;;5085066;27;43701;-79
2023/05/31 13:20:32;;;;;;;;;;;24.90;38.20;;;;;;5091723;27;42966;-79
2023/05/31 13:22:58;;;;;;;;;;;25.10;38.30;;;;;;5101296;27;43369;-81
2023/05/31 13:25:24;;;;;;;;;;;25.00;38.20;;;;;;5065908;28;42957;-80
2023/05/31 13:27:49;;;;;;;;;;;25.00;38.30;;;;;;5087509;27;43276;-81
2023/05/31 13:30:15;;;;;;;;;;;25.10;38.90;;;;;;5102801;27;42925;-81
2023/05/31 13:32:41;;;;;;;;;;;25.10;38.50;;;;;;5099124;27;43044;-80
2023/05/31 13:35:08;;;;;;;;;;;25.10;38.60;;;;;;5091166;27;43113;-80
2023/05/31 13:37:34;;;;;;;;;;;25.10;38.80;;;;;;5095687;27;43461;-80
2023/05/31 13:40:00;;;;;;;;;;;25.00;38.70;;;;;;5096940;27;42904;-76
2023/05/31 13:42:26;;;;;;;;;;;25.10;39.10;;;;;;5088246;27;43576;-76
2023/05/31 13:44:51;;;;;;;;;;;;;;;;;;5072202;27;43063;-77
2023/05/31 13:47:17;;;;;;;;;;;25.10;38.60;;;;;;5093751;27;43110;-80
2023/05/31 13:49:43;;;;;;;;;;;25.10;38.60;;;;;;5090012;27;42965;-78
2023/05/31 13:52:13;;;;;;;;;;;25.10;38.60;;;;;;5085248;27;42884;-81
2023/05/31 13:54:38;;;;;;;;;;;25.10;38.50;;;;;;5087204;27;43031;-81
2023/05/31 13:57:04;;;;;;;;;;;25.10;38.40;;;;;;5088151;27;43071;-80
2023/05/31 13:59:30;;;;;;;;;;;25.10;38.30;;;;;;5093325;27;42823;-78
2023/05/31 14:01:55;;;;;;;;;;;25.10;38.90;;;;;;5084749;27;42812;-79
2023/05/31 14:04:21;;;;;;;;;;;25.10;38.70;;;;;;5093935;27;42949;-82
2023/05/31 14:06:47;;;;;;;;;;;25.10;38.40;;;;;;5097834;27;43004;-83
2023/05/31 14:09:12;;;;;;;;;;;25.10;38.40;;;;;;5097655;27;42978;-81
2023/05/31 14:11:39;;;;;;;;;;;25.10;38.30;;;;;;5090202;27;43694;-80
2023/05/31 14:14:04;;;;;;;;;;;25.20;39.20;;;;;;5098710;27;42821;-81